Parres, Spain
Current Conditions -  °F | °C
As of 11:30 PM on Saturday 22 Nov 2014 (Local Time) from LEAS Reporting Station
Drizzle Drizzle  
Wind Chill: 57°   Ceiling: Unl
Heat Index: 57°   Visibility: 4mi
Dew Point: 57°   Wind: 10mph
Humidity: 100%   Direction: 280°W
Pressure: 29.91"   Gusts: NA
Location:  43.35°N, 5.15°W
Report Text: LEAS 222230Z 28009KT 260V320 6000 -DZ SCT003 SCT012 14/14 Q1013 TEMPO 1500 RA BCFG BKN008
Loading
Personal Weather Stations






























Interactive Weather Map New forecast layout! Learn more

10-Day Weather Forecast

Advertisements
Track Severe Weather on mobile